SKW4649 KSBA-KLAX
Flight info
| Callsign | SKW4649 |
|---|---|
| Flight time | 0h 26m |
| Altitude | 15000 |
| Route | MISHN5 KPTIN RYDRR RYDRR2 |
| Aircraft | CRJ9/M-SDFGIRWY/S |
Departure
| Time | 2026-05-06 15:13 |
|---|---|
| Airport | Santa Barbara Municipal Airport (KSBA) |
Arrival
| Time | 2026-05-06 15:40 |
|---|---|
| Airport | Los Angeles International Airport (KLAX) |
| Time | Latitude | Longitude | Altitude | Speed | Heading |
|---|---|---|---|---|---|
| 2026-05-06 14:55 | 34.42515 | -119.83729 | 18 ft | 0 kts | 114° |
| 2026-05-06 15:05 | 34.42519 | -119.83741 | 18 ft | 4 kts | 114° |
| 2026-05-06 15:05 | 34.42525 | -119.83769 | 18 ft | 4 kts | 70° |
| 2026-05-06 15:05 | 34.42511 | -119.83785 | 19 ft | 2 kts | 15° |
| 2026-05-06 15:06 | 34.42508 | -119.83785 | 18 ft | 0 kts | 345° |
| 2026-05-06 15:08 | 34.42530 | -119.83792 | 19 ft | 6 kts | 345° |
| 2026-05-06 15:08 | 34.42581 | -119.83809 | 21 ft | 10 kts | 345° |
| 2026-05-06 15:08 | 34.42634 | -119.83825 | 19 ft | 11 kts | 352° |
| 2026-05-06 15:09 | 34.42665 | -119.83815 | 21 ft | 1 kts | 54° |
| 2026-05-06 15:09 | 34.42669 | -119.83796 | 18 ft | 6 kts | 83° |
| 2026-05-06 15:09 | 34.42670 | -119.83703 | 18 ft | 16 kts | 87° |
| 2026-05-06 15:09 | 34.42680 | -119.83521 | 20 ft | 26 kts | 83° |
| 2026-05-06 15:10 | 34.42691 | -119.83477 | 18 ft | 0 kts | 45° |
| 2026-05-06 15:10 | 34.42691 | -119.83476 | 20 ft | 0 kts | 45° |
| 2026-05-06 15:12 | 34.42695 | -119.83473 | 20 ft | 4 kts | 40° |
| 2026-05-06 15:12 | 34.42771 | -119.83477 | 21 ft | 17 kts | 330° |
| 2026-05-06 15:12 | 34.42793 | -119.83573 | 18 ft | 6 kts | 265° |
| 2026-05-06 15:12 | 34.42787 | -119.83693 | 19 ft | 24 kts | 268° |
| 2026-05-06 15:13 | 34.42776 | -119.84196 | 20 ft | 97 kts | 268° |
| 2026-05-06 15:13 | 34.42753 | -119.85279 | 19 ft | 158 kts | 268° |
| 2026-05-06 15:13 | 34.42720 | -119.86705 | 458 ft | 181 kts | 268° |
| 2026-05-06 15:13 | 34.42583 | -119.88367 | 805 ft | 215 kts | 258° |
| 2026-05-06 15:14 | 34.42242 | -119.90307 | 1161 ft | 252 kts | 263° |
| 2026-05-06 15:14 | 34.42100 | -119.92354 | 2591 ft | 236 kts | 262° |
| 2026-05-06 15:14 | 34.41450 | -119.94167 | 3632 ft | 240 kts | 226° |
| 2026-05-06 15:14 | 34.39991 | -119.95124 | 4566 ft | 246 kts | 188° |
| 2026-05-06 15:15 | 34.38252 | -119.94992 | 5287 ft | 262 kts | 171° |
| 2026-05-06 15:15 | 34.36387 | -119.95046 | 6036 ft | 273 kts | 193° |
| 2026-05-06 15:15 | 34.34489 | -119.95405 | 6967 ft | 279 kts | 182° |
| 2026-05-06 15:15 | 34.32549 | -119.95388 | 7878 ft | 285 kts | 173° |
| 2026-05-06 15:16 | 34.30650 | -119.94663 | 8796 ft | 289 kts | 157° |
| 2026-05-06 15:16 | 34.28778 | -119.93675 | 9599 ft | 300 kts | 155° |
| 2026-05-06 15:16 | 34.26795 | -119.92613 | 10173 ft | 318 kts | 155° |
| 2026-05-06 15:16 | 34.24727 | -119.91530 | 10767 ft | 334 kts | 156° |
| 2026-05-06 15:17 | 34.22514 | -119.90447 | 11372 ft | 349 kts | 157° |
| 2026-05-06 15:17 | 34.20246 | -119.89364 | 12212 ft | 352 kts | 155° |
| 2026-05-06 15:17 | 34.18258 | -119.87678 | 12995 ft | 352 kts | 128° |
| 2026-05-06 15:17 | 34.17098 | -119.85137 | 13788 ft | 351 kts | 106° |
| 2026-05-06 15:18 | 34.16533 | -119.82252 | 14473 ft | 358 kts | 97° |
| 2026-05-06 15:18 | 34.16193 | -119.79214 | 14788 ft | 374 kts | 95° |
| 2026-05-06 15:18 | 34.15890 | -119.76041 | 14920 ft | 382 kts | 94° |
| 2026-05-06 15:18 | 34.15569 | -119.72855 | 14972 ft | 388 kts | 96° |
| 2026-05-06 15:19 | 34.15309 | -119.70695 | 14985 ft | 389 kts | 97° |
| 2026-05-06 15:19 | 34.14740 | -119.66397 | 14991 ft | 384 kts | 97° |
| 2026-05-06 15:19 | 34.14328 | -119.63263 | 14988 ft | 382 kts | 97° |
| 2026-05-06 15:19 | 34.13914 | -119.60097 | 14986 ft | 379 kts | 97° |
| 2026-05-06 15:20 | 34.13571 | -119.56941 | 14976 ft | 375 kts | 89° |
| 2026-05-06 15:20 | 34.13926 | -119.53887 | 14986 ft | 370 kts | 75° |
| 2026-05-06 15:20 | 34.14673 | -119.50899 | 14996 ft | 369 kts | 69° |
| 2026-05-06 15:20 | 34.15555 | -119.48023 | 14993 ft | 368 kts | 68° |
| 2026-05-06 15:21 | 34.16170 | -119.46066 | 14992 ft | 367 kts | 68° |
| 2026-05-06 15:21 | 34.17069 | -119.43213 | 14995 ft | 367 kts | 68° |
| 2026-05-06 15:21 | 34.17935 | -119.40305 | 14989 ft | 366 kts | 69° |
| 2026-05-06 15:21 | 34.19011 | -119.36426 | 14980 ft | 367 kts | 74° |
| 2026-05-06 15:22 | 34.19242 | -119.34403 | 14980 ft | 368 kts | 85° |
| 2026-05-06 15:22 | 34.19231 | -119.31303 | 14993 ft | 368 kts | 90° |
| 2026-05-06 15:22 | 34.19102 | -119.28204 | 14990 ft | 368 kts | 91° |
| 2026-05-06 15:22 | 34.18972 | -119.25110 | 14991 ft | 368 kts | 91° |
| 2026-05-06 15:23 | 34.18865 | -119.22053 | 14993 ft | 368 kts | 90° |
| 2026-05-06 15:23 | 34.18805 | -119.18966 | 14994 ft | 358 kts | 89° |
| 2026-05-06 15:23 | 34.18749 | -119.16030 | 14590 ft | 348 kts | 89° |
| 2026-05-06 15:23 | 34.18699 | -119.13170 | 14247 ft | 336 kts | 89° |
| 2026-05-06 15:24 | 34.18650 | -119.10403 | 13811 ft | 321 kts | 89° |
| 2026-05-06 15:24 | 34.18600 | -119.07753 | 13390 ft | 309 kts | 90° |
| 2026-05-06 15:24 | 34.18218 | -119.05229 | 13023 ft | 305 kts | 107° |
| 2026-05-06 15:24 | 34.17435 | -119.02887 | 12721 ft | 304 kts | 113° |
| 2026-05-06 15:25 | 34.16511 | -119.00581 | 12386 ft | 302 kts | 115° |
| 2026-05-06 15:25 | 34.15571 | -118.98303 | 12024 ft | 301 kts | 114° |
| 2026-05-06 15:25 | 34.14642 | -118.96044 | 11675 ft | 300 kts | 115° |
| 2026-05-06 15:25 | 34.13715 | -118.93788 | 11325 ft | 298 kts | 114° |
| 2026-05-06 15:26 | 34.12823 | -118.91567 | 10960 ft | 297 kts | 114° |
| 2026-05-06 15:26 | 34.12013 | -118.89515 | 10635 ft | 296 kts | 114° |
| 2026-05-06 15:26 | 34.11141 | -118.87293 | 10285 ft | 294 kts | 114° |
| 2026-05-06 15:26 | 34.10264 | -118.85064 | 10128 ft | 294 kts | 114° |
| 2026-05-06 15:27 | 34.09388 | -118.82833 | 10059 ft | 293 kts | 114° |
| 2026-05-06 15:27 | 34.08545 | -118.80688 | 10024 ft | 292 kts | 114° |
| 2026-05-06 15:27 | 34.07695 | -118.78518 | 10009 ft | 290 kts | 114° |
| 2026-05-06 15:27 | 34.06823 | -118.76311 | 10000 ft | 288 kts | 115° |
| 2026-05-06 15:28 | 34.05963 | -118.74130 | 9998 ft | 285 kts | 114° |
| 2026-05-06 15:28 | 34.05290 | -118.72406 | 9994 ft | 284 kts | 114° |
| 2026-05-06 15:28 | 34.04444 | -118.70241 | 9964 ft | 283 kts | 114° |
| 2026-05-06 15:28 | 34.03609 | -118.68115 | 9927 ft | 283 kts | 114° |
| 2026-05-06 15:29 | 34.02904 | -118.66208 | 9870 ft | 283 kts | 107° |
| 2026-05-06 15:29 | 34.02574 | -118.64249 | 9826 ft | 281 kts | 96° |
| 2026-05-06 15:29 | 34.02382 | -118.61924 | 9779 ft | 281 kts | 93° |
| 2026-05-06 15:29 | 34.02234 | -118.59569 | 9730 ft | 281 kts | 93° |
| 2026-05-06 15:30 | 34.02085 | -118.57211 | 9683 ft | 281 kts | 94° |
| 2026-05-06 15:30 | 34.01925 | -118.54886 | 9624 ft | 281 kts | 94° |
| 2026-05-06 15:30 | 34.01776 | -118.52532 | 9581 ft | 280 kts | 94° |
| 2026-05-06 15:30 | 34.01658 | -118.50625 | 9538 ft | 280 kts | 93° |
| 2026-05-06 15:31 | 34.01544 | -118.48731 | 9507 ft | 280 kts | 94° |
| 2026-05-06 15:31 | 34.01402 | -118.46328 | 9444 ft | 280 kts | 93° |
| 2026-05-06 15:31 | 34.01266 | -118.43999 | 9308 ft | 271 kts | 93° |
| 2026-05-06 15:32 | 34.01059 | -118.40411 | 9171 ft | 250 kts | 93° |
| 2026-05-06 15:32 | 34.00940 | -118.38350 | 8962 ft | 244 kts | 93° |
| 2026-05-06 15:32 | 34.00826 | -118.36335 | 8524 ft | 242 kts | 93° |
| 2026-05-06 15:32 | 34.00782 | -118.34316 | 8030 ft | 240 kts | 85° |
| 2026-05-06 15:33 | 34.00937 | -118.32309 | 7560 ft | 238 kts | 83° |
| 2026-05-06 15:33 | 34.01140 | -118.30349 | 7094 ft | 236 kts | 82° |
| 2026-05-06 15:33 | 34.01352 | -118.28498 | 6859 ft | 225 kts | 81° |
| 2026-05-06 15:33 | 34.01530 | -118.26957 | 6486 ft | 223 kts | 82° |
| 2026-05-06 15:34 | 34.01745 | -118.25153 | 6048 ft | 222 kts | 81° |
| 2026-05-06 15:34 | 34.01965 | -118.23312 | 5600 ft | 220 kts | 82° |
| 2026-05-06 15:34 | 34.01860 | -118.21498 | 5071 ft | 219 kts | 115° |
| 2026-05-06 15:34 | 34.01015 | -118.20323 | 4629 ft | 217 kts | 152° |
| 2026-05-06 15:35 | 33.99651 | -118.19986 | 4164 ft | 214 kts | 188° |
| 2026-05-06 15:35 | 33.98239 | -118.20310 | 4021 ft | 196 kts | 199° |
| 2026-05-06 15:35 | 33.97155 | -118.20970 | 4103 ft | 177 kts | 209° |
| 2026-05-06 15:35 | 33.96177 | -118.21644 | 4169 ft | 175 kts | 217° |
| 2026-05-06 15:36 | 33.95435 | -118.22864 | 4063 ft | 189 kts | 249° |
| 2026-05-06 15:36 | 33.95368 | -118.24457 | 4025 ft | 189 kts | 277° |
| 2026-05-06 15:36 | 33.95559 | -118.25986 | 3901 ft | 186 kts | 281° |
| 2026-05-06 15:36 | 33.95862 | -118.27469 | 3829 ft | 181 kts | 295° |
| 2026-05-06 15:37 | 33.96734 | -118.28519 | 3667 ft | 179 kts | 328° |
| 2026-05-06 15:37 | 33.97381 | -118.29593 | 3294 ft | 188 kts | 282° |
| 2026-05-06 15:37 | 33.97127 | -118.31093 | 3013 ft | 190 kts | 245° |
| 2026-05-06 15:37 | 33.96591 | -118.32531 | 2713 ft | 188 kts | 249° |
| 2026-05-06 15:38 | 33.96307 | -118.33916 | 2482 ft | 161 kts | 259° |
| 2026-05-06 15:38 | 33.96090 | -118.35172 | 1948 ft | 149 kts | 257° |
| 2026-05-06 15:38 | 33.95815 | -118.36419 | 1031 ft | 161 kts | 253° |
| 2026-05-06 15:38 | 33.95558 | -118.37683 | 539 ft | 150 kts | 257° |
| 2026-05-06 15:39 | 33.95378 | -118.38821 | 293 ft | 146 kts | 260° |
| 2026-05-06 15:39 | 33.95225 | -118.40064 | 153 ft | 150 kts | 262° |
| 2026-05-06 15:39 | 33.95114 | -118.41152 | 92 ft | 111 kts | 263° |
| 2026-05-06 15:39 | 33.95033 | -118.41935 | 94 ft | 67 kts | 263° |
| 2026-05-06 15:40 | 33.94960 | -118.42317 | 92 ft | 40 kts | 242° |
| 2026-05-06 15:40 | 33.94810 | -118.42484 | 100 ft | 21 kts | 185° |
| 2026-05-06 15:40 | 33.94679 | -118.42476 | 95 ft | 1 kts | 174° |
| 2026-05-06 15:40 | 33.94670 | -118.42472 | 95 ft | 4 kts | 143° |
| 2026-05-06 15:41 | 33.94666 | -118.42422 | 92 ft | 9 kts | 88° |
| 2026-05-06 15:41 | 33.94674 | -118.42315 | 92 ft | 17 kts | 83° |
| 2026-05-06 15:41 | 33.94692 | -118.42148 | 92 ft | 23 kts | 83° |
| 2026-05-06 15:41 | 33.94694 | -118.41937 | 93 ft | 18 kts | 126° |
| 2026-05-06 15:42 | 33.94632 | -118.41880 | 91 ft | 6 kts | 113° |
| 2026-05-06 15:42 | 33.94635 | -118.41829 | 92 ft | 9 kts | 79° |
| 2026-05-06 15:42 | 33.94628 | -118.41738 | 91 ft | 13 kts | 133° |
| 2026-05-06 15:42 | 33.94531 | -118.41700 | 94 ft | 18 kts | 171° |
| 2026-05-06 15:43 | 33.94386 | -118.41678 | 92 ft | 24 kts | 166° |
| 2026-05-06 15:43 | 33.94344 | -118.41638 | 91 ft | 2 kts | 99° |
| 2026-05-06 15:43 | 33.94347 | -118.41606 | 92 ft | 7 kts | 82° |
| 2026-05-06 15:43 | 33.94349 | -118.41583 | 91 ft | 0 kts | 86° |
| 2026-05-06 15:44 | 33.94349 | -118.41580 | 91 ft | 0 kts | 83° |